Hustler II — CZ3052 — position and weather

sailwx.info

Track history (hours):
 
Tides and Currents Weather Stations Pressure Air Temp Water Temp Dewpoint Dewpoint Depression Visibility Wind Speed Wind Dir Waves Ship Positions

Hustler II

Last reported at 2018-Feb-21 00:50 UTC. Time now 2018-Feb-22 16:47 UTC.
Position N 48°56' W 123°43'.

Length 15 m; draft 3.5 m.

Type: Towing. MMSI: 316005607.

Date/timePositionNaut miles runAvg speedWind from/ knotsBaromVisibWave heightAir tempDewpointWater temp
2018-Feb-21 00:50N 48°56' W 123°43'3 8.7
2018-Feb-21 00:30N 48°54' W 123°39'2 2.3
2018-Feb-20 23:35N 48°52' W 123°38'0 1.0
2018-Feb-20 23:18N 48°52' W 123°38'2 7.1
2018-Feb-20 23:00N 48°54' W 123°39'3 0.8
2018-Feb-20 19:14N 48°56' W 123°43'0 0.0
2018-Feb-20 18:54N 48°56' W 123°43'0 0.0
2018-Feb-19 18:25N 48°56' W 123°43'0 0.0
2018-Feb-19 17:32N 48°56' W 123°43'0 0.0
2018-Feb-19 17:27N 48°56' W 123°43'0 0.0
2018-Feb-18 19:34N 48°56' W 123°43'0 0.0
2018-Feb-18 19:29N 48°56' W 123°43'0 0.0
2018-Feb-18 17:55N 48°56' W 123°43'0 0.0
2018-Feb-18 16:59N 48°56' W 123°43'0 0.0
2018-Feb-18 16:21N 48°56' W 123°43'0 0.0
2018-Feb-18 14:14N 48°56' W 123°43'0 0.0
2018-Feb-18 13:58N 48°56' W 123°43'0 0.0
2018-Feb-18 13:30N 48°56' W 123°43'0 0.0
2018-Feb-18 13:00N 48°56' W 123°43'0 0.0
2018-Feb-18 12:29N 48°56' W 123°43'0 0.0
2018-Feb-18 11:21N 48°56' W 123°43'0 0.0
2018-Feb-18 04:34N 48°56' W 123°43'0 0.0
2018-Feb-18 01:59N 48°56' W 123°43'0 0.0
2018-Feb-17 23:35N 48°56' W 123°43'0 0.0
2018-Feb-17 23:25N 48°56' W 123°43'0 0.0
2018-Feb-17 22:46N 48°56' W 123°43'0 0.0
2018-Feb-17 21:44N 48°56' W 123°43'0 0.0
2018-Feb-17 21:30N 48°56' W 123°43'0 0.0
2018-Feb-17 21:00N 48°56' W 123°43'0 0.0
2018-Feb-17 20:28N 48°56' W 123°43'0 0.0
2018-Feb-17 19:57N 48°56' W 123°43'0 0.0
2018-Feb-17 19:25N 48°56' W 123°43'0 0.0
2018-Feb-17 18:56N 48°56' W 123°43'0 0.0
2018-Feb-17 18:24N 48°56' W 123°43'0 0.0
2018-Feb-17 17:54N 48°56' W 123°43'0 0.0
2018-Feb-17 17:30N 48°56' W 123°43'0 0.0
2018-Feb-17 17:00N 48°56' W 123°43'0 0.0
2018-Feb-17 16:27N 48°56' W 123°43'0 0.0
2018-Feb-17 15:58N 48°56' W 123°43'0 0.0
2018-Feb-17 15:25N 48°56' W 123°43'0 0.0
2018-Feb-17 15:00N 48°56' W 123°43'0 0.0
2018-Feb-17 14:29N 48°56' W 123°43'0 0.0
2018-Feb-17 14:00N 48°56' W 123°43'0 0.0
2018-Feb-17 13:30N 48°56' W 123°43'0 0.0
2018-Feb-17 12:59N 48°56' W 123°43'0 0.0
2018-Feb-17 12:30N 48°56' W 123°43'0 0.0
2018-Feb-17 11:57N 48°56' W 123°43'0 0.0
2018-Feb-17 11:25N 48°56' W 123°43'0 0.0
2018-Feb-16 21:04N 48°56' W 123°43'0 0.0
2018-Feb-16 20:10N 48°56' W 123°43'0 0.0
2018-Feb-16 19:44N 48°56' W 123°43'0 0.0
2018-Feb-16 17:29N 48°56' W 123°43'0 0.0
2018-Feb-16 16:57N 48°56' W 123°43'0 0.0
2018-Feb-16 15:46N 48°56' W 123°43'0 0.0
2018-Feb-16 15:30N 48°56' W 123°43'0 0.0
2018-Feb-16 14:57N 48°56' W 123°43'0 0.0
2018-Feb-16 14:26N 48°56' W 123°43'0 0.0
2018-Feb-15 15:51N 48°56' W 123°43'3 7.9
2018-Feb-15 15:30N 48°54' W 123°39'2 4.4
2018-Feb-15 15:00N 48°52' W 123°38'0 0.3
2018-Feb-15 14:17N 48°52' W 123°38'1 3.1
2018-Feb-15 14:00N 48°52' W 123°37'1 1.2
2018-Feb-15 13:30N 48°53' W 123°37'3 5.2
2018-Feb-15 13:00N 48°55' W 123°40'2 4.5
2018-Feb-15 12:30N 48°56' W 123°43'0 0.0
2018-Feb-14 23:43N 48°56' W 123°43'0 0.0
2018-Feb-14 23:24N 48°56' W 123°43'0 0.0
2018-Feb-14 23:00N 48°56' W 123°43'0 0.0
2018-Feb-14 06:05N 48°56' W 123°43'0 0.0
2018-Feb-14 02:20N 48°56' W 123°43'0 0.7
2018-Feb-14 01:49N 48°56' W 123°42'0 0.0
2018-Feb-13 15:46N 48°56' W 123°43'0 0.0
2018-Feb-13 15:28N 48°56' W 123°43'0 0.0
2018-Feb-13 14:01N 48°56' W 123°43'0 0.0
2018-Feb-13 14:00N 48°56' W 123°43'0 0.0
2018-Feb-13 13:28N 48°56' W 123°43'0 0.0
2018-Feb-13 12:41N 48°56' W 123°43'0 0.0
2018-Feb-13 12:29N 48°56' W 123°43'0 0.0
2018-Feb-13 11:59N 48°56' W 123°43'0 0.0
2018-Feb-13 11:23N 48°56' W 123°43'0 0.0
2018-Feb-13 10:59N 48°56' W 123°43'0 0.0
2018-Feb-12 12:40N 48°56' W 123°43'0 1.4
2018-Feb-12 12:30N 48°55' W 123°42'0 0.4
2018-Feb-12 12:00N 48°56' W 123°42'0 0.4
2018-Feb-12 11:30N 48°56' W 123°43'0 0.2
2018-Feb-12 10:58N 48°55' W 123°43'0 0.3
2018-Feb-12 10:30N 48°55' W 123°43'0 0.5
2018-Feb-12 10:00N 48°56' W 123°43'1 1.7
2018-Feb-12 09:30N 48°56' W 123°43'1 1.9
2018-Feb-12 08:59N 48°57' W 123°43'1 1.8
2018-Feb-12 08:29N 48°58' W 123°43'1 1.9
2018-Feb-12 07:59N 48°59' W 123°44'11 0.9
2018-Feb-11 19:11N 49°09' W 123°52'0 0.8
2018-Feb-11 18:52N 49°09' W 123°51'0 0.0
2018-Feb-11 18:15N 49°09' W 123°51'17 3.9
2018-Feb-11 13:57N 49°13' W 123°27'4 9.8
2018-Feb-11 13:30N 49°15' W 123°20'4 7.1
2018-Feb-11 13:00N 49°14' W 123°15'0 0.2
2018-Feb-11 12:29N 49°14' W 123°15'0 0.9
2018-Feb-11 12:00N 49°15' W 123°15'1 2.2
2018-Feb-11 11:30N 49°15' W 123°16'1 1.4
2018-Feb-11 11:00N 49°15' W 123°17'0 0.9
2018-Feb-11 10:30N 49°15' W 123°17'0 0.5
2018-Feb-11 10:00N 49°15' W 123°18'1 1.1
2018-Feb-11 09:30N 49°15' W 123°19'1 2.1
2018-Feb-11 09:00N 49°15' W 123°20'1 2.2
2018-Feb-11 08:29N 49°15' W 123°22'1 2.0
2018-Feb-11 08:00N 49°15' W 123°23'1 1.8
2018-Feb-11 07:30N 49°15' W 123°25'1 1.7
2018-Feb-11 07:00N 49°14' W 123°26'1 1.6
2018-Feb-11 06:29N 49°14' W 123°27'1 1.5
2018-Feb-11 06:00N 49°14' W 123°28'1 1.6
2018-Feb-11 05:30N 49°14' W 123°30'1 1.5
2018-Feb-11 04:57N 49°13' W 123°31'1 1.5
2018-Feb-11 04:30N 49°13' W 123°32'1 1.3
2018-Feb-11 04:00N 49°13' W 123°33'1 1.5
2018-Feb-11 03:20N 49°13' W 123°34'  
Track history (hours):
 
Tides and Currents Weather Stations Pressure Air Temp Water Temp Dewpoint Dewpoint Depression Visibility Wind Speed Wind Dir Waves Ship Positions

Hustler II

Last reported at 2018-Feb-21 00:50 UTC. Time now 2018-Feb-22 16:47 UTC.
Position N 48°56' W 123°43'.

Length 15 m; draft 3.5 m.

Type: Towing. MMSI: 316005607.

Date/timePositionNaut miles runAvg speedWind from/ knotsBaromVisibWave heightAir tempDewpointWater temp
2018-Feb-21 00:50N 48°56' W 123°43'3 8.7
2018-Feb-21 00:30N 48°54' W 123°39'2 2.3
2018-Feb-20 23:35N 48°52' W 123°38'0 1.0
2018-Feb-20 23:18N 48°52' W 123°38'2 7.1
2018-Feb-20 23:00N 48°54' W 123°39'3 0.8
2018-Feb-20 19:14N 48°56' W 123°43'0 0.0
2018-Feb-20 18:54N 48°56' W 123°43'0 0.0
2018-Feb-19 18:25N 48°56' W 123°43'0 0.0
2018-Feb-19 17:32N 48°56' W 123°43'0 0.0
2018-Feb-19 17:27N 48°56' W 123°43'0 0.0
2018-Feb-18 19:34N 48°56' W 123°43'0 0.0
2018-Feb-18 19:29N 48°56' W 123°43'0 0.0
2018-Feb-18 17:55N 48°56' W 123°43'0 0.0
2018-Feb-18 16:59N 48°56' W 123°43'0 0.0
2018-Feb-18 16:21N 48°56' W 123°43'0 0.0
2018-Feb-18 14:14N 48°56' W 123°43'0 0.0
2018-Feb-18 13:58N 48°56' W 123°43'0 0.0
2018-Feb-18 13:30N 48°56' W 123°43'0 0.0
2018-Feb-18 13:00N 48°56' W 123°43'0 0.0
2018-Feb-18 12:29N 48°56' W 123°43'0 0.0
2018-Feb-18 11:21N 48°56' W 123°43'0 0.0
2018-Feb-18 04:34N 48°56' W 123°43'0 0.0
2018-Feb-18 01:59N 48°56' W 123°43'0 0.0
2018-Feb-17 23:35N 48°56' W 123°43'0 0.0
2018-Feb-17 23:25N 48°56' W 123°43'0 0.0
2018-Feb-17 22:46N 48°56' W 123°43'0 0.0
2018-Feb-17 21:44N 48°56' W 123°43'0 0.0
2018-Feb-17 21:30N 48°56' W 123°43'0 0.0
2018-Feb-17 21:00N 48°56' W 123°43'0 0.0
2018-Feb-17 20:28N 48°56' W 123°43'0 0.0
2018-Feb-17 19:57N 48°56' W 123°43'0 0.0
2018-Feb-17 19:25N 48°56' W 123°43'0 0.0
2018-Feb-17 18:56N 48°56' W 123°43'0 0.0
2018-Feb-17 18:24N 48°56' W 123°43'0 0.0
2018-Feb-17 17:54N 48°56' W 123°43'0 0.0
2018-Feb-17 17:30N 48°56' W 123°43'0 0.0
2018-Feb-17 17:00N 48°56' W 123°43'0 0.0
2018-Feb-17 16:27N 48°56' W 123°43'0 0.0
2018-Feb-17 15:58N 48°56' W 123°43'0 0.0
2018-Feb-17 15:25N 48°56' W 123°43'0 0.0
2018-Feb-17 15:00N 48°56' W 123°43'0 0.0
2018-Feb-17 14:29N 48°56' W 123°43'0 0.0
2018-Feb-17 14:00N 48°56' W 123°43'0 0.0
2018-Feb-17 13:30N 48°56' W 123°43'0 0.0
2018-Feb-17 12:59N 48°56' W 123°43'0 0.0
2018-Feb-17 12:30N 48°56' W 123°43'0 0.0
2018-Feb-17 11:57N 48°56' W 123°43'0 0.0
2018-Feb-17 11:25N 48°56' W 123°43'0 0.0
2018-Feb-16 21:04N 48°56' W 123°43'0 0.0
2018-Feb-16 20:10N 48°56' W 123°43'0 0.0
2018-Feb-16 19:44N 48°56' W 123°43'0 0.0
2018-Feb-16 17:29N 48°56' W 123°43'0 0.0
2018-Feb-16 16:57N 48°56' W 123°43'0 0.0
2018-Feb-16 15:46N 48°56' W 123°43'0 0.0
2018-Feb-16 15:30N 48°56' W 123°43'0 0.0
2018-Feb-16 14:57N 48°56' W 123°43'0 0.0
2018-Feb-16 14:26N 48°56' W 123°43'0 0.0
2018-Feb-15 15:51N 48°56' W 123°43'3 7.9
2018-Feb-15 15:30N 48°54' W 123°39'2 4.4
2018-Feb-15 15:00N 48°52' W 123°38'0 0.3
2018-Feb-15 14:17N 48°52' W 123°38'1 3.1
2018-Feb-15 14:00N 48°52' W 123°37'1 1.2
2018-Feb-15 13:30N 48°53' W 123°37'3 5.2
2018-Feb-15 13:00N 48°55' W 123°40'2 4.5
2018-Feb-15 12:30N 48°56' W 123°43'0 0.0
2018-Feb-14 23:43N 48°56' W 123°43'0 0.0
2018-Feb-14 23:24N 48°56' W 123°43'0 0.0
2018-Feb-14 23:00N 48°56' W 123°43'0 0.0
2018-Feb-14 06:05N 48°56' W 123°43'0 0.0
2018-Feb-14 02:20N 48°56' W 123°43'0 0.7
2018-Feb-14 01:49N 48°56' W 123°42'0 0.0
2018-Feb-13 15:46N 48°56' W 123°43'0 0.0
2018-Feb-13 15:28N 48°56' W 123°43'0 0.0
2018-Feb-13 14:01N 48°56' W 123°43'0 0.0
2018-Feb-13 14:00N 48°56' W 123°43'0 0.0
2018-Feb-13 13:28N 48°56' W 123°43'0 0.0
2018-Feb-13 12:41N 48°56' W 123°43'0 0.0
2018-Feb-13 12:29N 48°56' W 123°43'0 0.0
2018-Feb-13 11:59N 48°56' W 123°43'0 0.0
2018-Feb-13 11:23N 48°56' W 123°43'0 0.0
2018-Feb-13 10:59N 48°56' W 123°43'0 0.0
2018-Feb-12 12:40N 48°56' W 123°43'0 1.4
2018-Feb-12 12:30N 48°55' W 123°42'0 0.4
2018-Feb-12 12:00N 48°56' W 123°42'0 0.4
2018-Feb-12 11:30N 48°56' W 123°43'0 0.2
2018-Feb-12 10:58N 48°55' W 123°43'0 0.3
2018-Feb-12 10:30N 48°55' W 123°43'0 0.5
2018-Feb-12 10:00N 48°56' W 123°43'1 1.7
2018-Feb-12 09:30N 48°56' W 123°43'1 1.9
2018-Feb-12 08:59N 48°57' W 123°43'1 1.8
2018-Feb-12 08:29N 48°58' W 123°43'1 1.9
2018-Feb-12 07:59N 48°59' W 123°44'11 0.9
2018-Feb-11 19:11N 49°09' W 123°52'0 0.8
2018-Feb-11 18:52N 49°09' W 123°51'0 0.0
2018-Feb-11 18:15N 49°09' W 123°51'17 3.9
2018-Feb-11 13:57N 49°13' W 123°27'4 9.8
2018-Feb-11 13:30N 49°15' W 123°20'4 7.1
2018-Feb-11 13:00N 49°14' W 123°15'0 0.2
2018-Feb-11 12:29N 49°14' W 123°15'0 0.9
2018-Feb-11 12:00N 49°15' W 123°15'1 2.2
2018-Feb-11 11:30N 49°15' W 123°16'1 1.4
2018-Feb-11 11:00N 49°15' W 123°17'0 0.9
2018-Feb-11 10:30N 49°15' W 123°17'0 0.5
2018-Feb-11 10:00N 49°15' W 123°18'1 1.1
2018-Feb-11 09:30N 49°15' W 123°19'1 2.1
2018-Feb-11 09:00N 49°15' W 123°20'1 2.2
2018-Feb-11 08:29N 49°15' W 123°22'1 2.0
2018-Feb-11 08:00N 49°15' W 123°23'1 1.8
2018-Feb-11 07:30N 49°15' W 123°25'1 1.7
2018-Feb-11 07:00N 49°14' W 123°26'1 1.6
2018-Feb-11 06:29N 49°14' W 123°27'1 1.5
2018-Feb-11 06:00N 49°14' W 123°28'1 1.6
2018-Feb-11 05:30N 49°14' W 123°30'1 1.5
2018-Feb-11 04:57N 49°13' W 123°31'1 1.5
2018-Feb-11 04:30N 49°13' W 123°32'1 1.3
2018-Feb-11 04:00N 49°13' W 123°33'1 1.5
2018-Feb-11 03:20N 49°13' W 123°34'  

Dump ship's entire track history